Time;durP1;ratioP1;P1;durP2;ratioP2;P2;SDS_P1;SDS_P2;PMS_P1;PMS_P2;Temp;Humidity;BMP_temperature;BMP_pressure;BME280_temperature;BME280_humidity;BME280_pressure;Samples;Min_cycle;Max_cycle;Signal;HPM_P1;HPM_P2
2023/05/04 00:00:23;;;;;;;5.72;2.13;;;6.70;99.90;;;;;;4970390;28;20078;-76
2023/05/04 00:02:49;;;;;;;8.77;2.00;;;6.70;99.90;;;;;;4968541;28;20488;-76
2023/05/04 00:05:15;;;;;;;9.07;3.40;;;6.70;99.90;;;;;;4969318;28;20042;-75
2023/05/04 00:07:41;;;;;;;4.90;2.30;;;6.70;99.90;;;;;;4971004;28;20201;-76
2023/05/04 00:10:08;;;;;;;7.22;2.25;;;6.70;99.90;;;;;;4947202;28;20078;-76
2023/05/04 00:12:34;;;;;;;2.40;2.10;;;6.70;99.90;;;;;;4954773;28;20384;-77
2023/05/04 00:14:59;;;;;;;12.32;2.35;;;6.70;99.90;;;;;;4954021;28;20050;-75
2023/05/04 00:17:25;;;;;;;8.10;2.40;;;6.70;99.90;;;;;;4971053;28;20166;-76
2023/05/04 00:19:51;;;;;;;5.63;2.60;;;6.70;99.90;;;;;;4970765;28;20049;-75
2023/05/04 00:22:16;;;;;;;8.52;2.70;;;6.70;99.90;;;;;;4969157;28;20042;-76
2023/05/04 00:24:43;;;;;;;6.20;3.20;;;6.70;99.90;;;;;;4957295;28;20059;-75
2023/05/04 00:27:09;;;;;;;8.88;3.10;;;6.70;99.90;;;;;;4969681;28;20050;-76
2023/05/04 00:29:35;;;;;;;8.18;2.33;;;6.70;99.90;;;;;;4954961;28;20115;-76
2023/05/04 00:32:01;;;;;;;10.27;3.63;;;6.70;99.90;;;;;;4968864;28;20046;-76
2023/05/04 00:34:27;;;;;;;3.92;2.20;;;6.70;99.90;;;;;;4970999;28;20525;-76
2023/05/04 00:36:55;;;;;;;4.93;2.38;;;6.60;99.90;;;;;;4953497;28;20050;-76
2023/05/04 00:39:21;;;;;;;7.80;2.55;;;6.60;99.90;;;;;;4959726;28;20551;-76
2023/05/04 00:41:47;;;;;;;5.70;2.28;;;6.60;99.90;;;;;;4967302;28;20440;-76
2023/05/04 00:44:13;;;;;;;6.13;2.83;;;6.60;99.90;;;;;;4953528;28;20833;-76
2023/05/04 00:46:39;;;;;;;5.75;2.53;;;6.60;99.90;;;;;;4970181;28;20509;-76
2023/05/04 00:49:06;;;;;;;11.90;2.50;;;6.50;99.90;;;;;;4969608;28;20074;-76
2023/05/04 00:51:33;;;;;;;10.90;2.63;;;6.50;99.90;;;;;;4970589;28;20054;-76
2023/05/04 00:53:59;;;;;;;5.18;2.47;;;6.50;99.90;;;;;;4953233;28;20046;-76
2023/05/04 00:56:25;;;;;;;6.13;2.95;;;6.40;99.90;;;;;;4954097;28;20133;-76
2023/05/04 00:58:53;;;;;;;8.02;2.55;;;6.50;99.90;;;;;;4969236;28;20493;-76
2023/05/04 01:01:22;;;;;;;6.65;2.67;;;6.50;99.90;;;;;;4969568;28;20436;-76
2023/05/04 01:03:50;;;;;;;12.45;3.22;;;6.50;99.90;;;;;;4953949;28;20111;-77
2023/05/04 01:06:25;;;;;;;7.05;2.55;;;6.50;99.90;;;;;;4968759;28;20046;-76
2023/05/04 01:09:18;;;;;;;9.55;2.47;;;6.50;99.90;;;;;;4969678;28;20101;-76
2023/05/04 01:11:54;;;;;;;7.43;2.80;;;6.50;99.90;;;;;;4934765;28;20452;-76
2023/05/04 01:14:21;;;;;;;7.45;2.90;;;6.50;99.90;;;;;;4952542;28;20084;-76
2023/05/04 01:16:51;;;;;;;8.63;3.85;;;6.40;99.90;;;;;;4954136;28;20038;-76
2023/05/04 01:19:17;;;;;;;9.80;3.10;;;6.40;99.90;;;;;;4969371;28;20038;-77
2023/05/04 01:21:43;;;;;;;6.50;2.75;;;6.40;99.90;;;;;;4970487;28;20477;-77
2023/05/04 01:24:09;;;;;;;8.98;2.80;;;6.40;99.90;;;;;;4968815;28;20050;-76
2023/05/04 01:26:40;;;;;;;6.63;3.10;;;6.40;99.90;;;;;;4987840;28;20053;-76
2023/05/04 01:29:20;;;;;;;6.68;3.13;;;6.40;99.90;;;;;;4970303;28;20108;-76
2023/05/04 01:31:47;;;;;;;12.30;2.78;;;6.40;99.90;;;;;;4968702;28;20458;-76
2023/05/04 01:34:14;;;;;;;6.90;2.95;;;6.30;99.90;;;;;;4970118;28;20079;-76
2023/05/04 01:36:42;;;;;;;12.00;2.90;;;6.30;99.90;;;;;;4968996;28;20057;-76
2023/05/04 01:39:08;;;;;;;13.25;3.50;;;6.30;99.90;;;;;;4954298;28;20170;-76
2023/05/04 01:41:34;;;;;;;5.78;2.90;;;6.20;99.90;;;;;;4968892;28;20093;-76
2023/05/04 01:44:00;;;;;;;10.23;3.20;;;6.30;99.90;;;;;;4969431;28;20050;-76
2023/05/04 01:46:26;;;;;;;8.30;2.97;;;6.20;99.90;;;;;;4953663;28;20061;-76
2023/05/04 01:48:52;;;;;;;8.57;4.10;;;6.20;99.90;;;;;;4984560;28;20420;-77
2023/05/04 01:51:18;;;;;;;7.13;3.15;;;6.20;99.90;;;;;;4970272;28;20046;-76
2023/05/04 01:53:45;;;;;;;5.82;3.05;;;6.20;99.90;;;;;;4952482;28;20043;-76
2023/05/04 01:56:11;;;;;;;11.30;3.42;;;6.20;99.90;;;;;;4983404;28;20519;-76
2023/05/04 01:58:37;;;;;;;10.25;3.75;;;6.20;99.90;;;;;;4968537;28;20042;-76
2023/05/04 02:01:02;;;;;;;9.73;3.80;;;6.20;99.90;;;;;;4969618;28;20109;-76
2023/05/04 02:03:28;;;;;;;7.70;3.33;;;6.20;99.90;;;;;;4969283;28;20046;-76
2023/05/04 02:05:54;;;;;;;9.68;4.03;;;6.20;99.90;;;;;;4952503;28;20046;-76
2023/05/04 02:08:20;;;;;;;10.20;4.15;;;6.20;99.90;;;;;;4953827;28;20042;-77
2023/05/04 02:10:47;;;;;;;5.50;3.50;;;6.20;99.90;;;;;;4971540;28;20104;-76
2023/05/04 02:13:13;;;;;;;9.32;3.42;;;6.20;99.90;;;;;;4973991;28;20434;-76
2023/05/04 02:15:39;;;;;;;13.48;4.38;;;6.20;99.90;;;;;;4971221;28;20057;-76
2023/05/04 02:18:05;;;;;;;9.07;3.65;;;6.30;99.90;;;;;;4973152;28;20519;-76
2023/05/04 02:20:31;;;;;;;9.57;4.00;;;6.30;99.90;;;;;;4972458;28;20042;-76
2023/05/04 02:22:56;;;;;;;8.50;3.90;;;6.30;99.90;;;;;;4972182;28;20142;-77
2023/05/04 02:25:22;;;;;;;8.30;3.58;;;6.20;99.90;;;;;;4973326;28;20109;-76
2023/05/04 02:27:48;;;;;;;5.60;3.90;;;6.20;99.90;;;;;;4970069;28;20072;-76
2023/05/04 02:30:20;;;;;;;11.50;5.55;;;6.20;99.90;;;;;;4976545;28;20512;-76
2023/05/04 02:32:46;;;;;;;10.13;4.07;;;6.20;99.90;;;;;;4966336;28;20050;-77
2023/05/04 02:35:11;;;;;;;8.52;4.03;;;6.10;99.90;;;;;;4988166;28;20504;-76
2023/05/04 02:37:37;;;;;;;13.63;4.10;;;6.10;99.90;;;;;;4976114;28;20046;-76
2023/05/04 02:40:03;;;;;;;7.15;4.00;;;6.10;99.90;;;;;;4972519;28;20047;-76
2023/05/04 02:42:29;;;;;;;8.52;4.38;;;6.10;99.90;;;;;;4972746;28;20058;-76
2023/05/04 02:44:55;;;;;;;5.53;3.83;;;6.20;99.90;;;;;;4980456;28;20076;-76
2023/05/04 02:47:20;;;;;;;10.82;4.55;;;6.20;99.90;;;;;;4982789;28;20463;-76
2023/05/04 02:49:46;;;;;;;16.13;4.80;;;6.20;99.90;;;;;;4982260;28;20046;-76
2023/05/04 02:52:12;;;;;;;8.57;4.22;;;6.20;99.90;;;;;;4971756;28;20122;-76
2023/05/04 02:54:37;;;;;;;7.22;4.18;;;6.20;99.90;;;;;;4982845;28;20095;-76
2023/05/04 02:57:04;;;;;;;7.57;3.88;;;6.20;99.90;;;;;;4983419;28;20121;-76
2023/05/04 02:59:29;;;;;;;9.18;4.15;;;6.20;99.90;;;;;;4965279;28;20108;-76
2023/05/04 03:01:55;;;;;;;5.88;3.70;;;6.20;99.90;;;;;;4975784;28;20451;-76
2023/05/04 03:04:21;;;;;;;10.80;4.18;;;6.20;99.90;;;;;;4981955;28;20050;-75
2023/05/04 03:06:47;;;;;;;7.32;3.20;;;6.20;99.90;;;;;;4982106;28;20042;-75
2023/05/04 03:09:13;;;;;;;11.13;4.00;;;6.30;99.90;;;;;;4981162;28;20050;-76
2023/05/04 03:11:38;;;;;;;10.77;3.75;;;6.30;99.90;;;;;;4970487;28;20456;-76
2023/05/04 03:14:05;;;;;;;10.10;4.03;;;6.40;99.90;;;;;;4972163;28;20054;-76
2023/05/04 03:16:31;;;;;;;14.07;3.92;;;6.40;99.90;;;;;;4970742;28;20042;-77
2023/05/04 03:18:57;;;;;;;14.32;3.90;;;6.40;99.90;;;;;;4955641;28;20512;-75
2023/05/04 03:21:23;;;;;;;9.82;4.07;;;6.40;99.90;;;;;;4970809;28;20038;-75
2023/05/04 03:23:49;;;;;;;11.73;3.92;;;6.40;99.90;;;;;;4955468;28;20049;-75
2023/05/04 03:26:14;;;;;;;12.10;4.20;;;6.50;99.90;;;;;;4989291;28;20048;-76
2023/05/04 03:28:40;;;;;;;11.18;3.92;;;6.50;99.90;;;;;;4970219;28;20505;-76
2023/05/04 03:31:06;;;;;;;6.13;3.50;;;6.50;99.90;;;;;;4955421;28;20085;-76
2023/05/04 03:33:32;;;;;;;5.65;3.50;;;6.50;99.90;;;;;;4970935;28;20054;-76
2023/05/04 03:35:57;;;;;;;8.52;4.03;;;6.50;99.90;;;;;;4972112;28;20050;-76
2023/05/04 03:38:23;;;;;;;10.05;3.60;;;6.50;99.90;;;;;;4970299;28;20050;-75
2023/05/04 03:40:49;;;;;;;7.60;3.85;;;6.50;99.90;;;;;;4971421;28;20046;-76
2023/05/04 03:43:14;;;;;;;7.75;4.00;;;6.50;99.90;;;;;;4971182;28;20128;-76
2023/05/04 03:45:40;;;;;;;9.23;4.05;;;6.50;99.90;;;;;;4970823;28;20057;-76
2023/05/04 03:48:06;;;;;;;7.63;3.88;;;6.50;99.90;;;;;;4955057;28;20141;-76
2023/05/04 03:50:31;;;;;;;5.10;3.60;;;6.50;99.90;;;;;;4953957;28;20053;-76
2023/05/04 03:52:57;;;;;;;7.70;4.22;;;6.50;99.90;;;;;;4971365;28;20587;-77
2023/05/04 03:55:23;;;;;;;9.60;4.10;;;6.50;99.90;;;;;;4953249;28;20042;-76
2023/05/04 03:57:49;;;;;;;10.55;4.35;;;6.50;99.90;;;;;;4955658;28;20074;-76
2023/05/04 04:00:15;;;;;;;7.85;3.90;;;6.50;99.90;;;;;;4970282;28;20046;-75
2023/05/04 04:02:41;;;;;;;11.20;4.18;;;6.60;99.90;;;;;;4954034;28;20385;-76
2023/05/04 04:05:07;;;;;;;7.88;3.95;;;6.60;99.90;;;;;;4955225;28;20056;-76
2023/05/04 04:07:33;;;;;;;7.22;4.10;;;6.60;99.90;;;;;;4970199;28;20054;-76
2023/05/04 04:09:59;;;;;;;12.60;4.10;;;6.70;99.90;;;;;;4971813;28;20080;-76
2023/05/04 04:12:25;;;;;;;11.88;4.85;;;6.70;99.90;;;;;;4952778;28;20046;-76
2023/05/04 04:14:51;;;;;;;11.00;4.47;;;6.70;99.90;;;;;;4988938;28;20138;-76
2023/05/04 04:17:17;;;;;;;8.85;4.05;;;6.70;99.90;;;;;;4953019;28;20129;-77
2023/05/04 04:19:43;;;;;;;7.32;4.22;;;6.70;99.90;;;;;;4970648;28;20089;-76
2023/05/04 04:22:09;;;;;;;13.23;4.80;;;6.70;99.90;;;;;;4970254;28;20140;-76
2023/05/04 04:24:35;;;;;;;9.48;4.20;;;6.70;99.90;;;;;;4953624;28;20472;-76
2023/05/04 04:27:00;;;;;;;14.57;4.72;;;6.60;99.90;;;;;;4971044;28;20124;-76
2023/05/04 04:29:27;;;;;;;8.20;4.63;;;6.70;99.90;;;;;;4952864;28;20046;-76
2023/05/04 04:31:53;;;;;;;10.32;4.70;;;6.70;99.90;;;;;;4986755;28;20464;-76
2023/05/04 04:34:19;;;;;;;7.60;4.57;;;6.70;99.90;;;;;;4952808;28;20085;-75
2023/05/04 04:36:45;;;;;;;12.75;4.65;;;6.70;99.90;;;;;;4971675;28;20121;-76
2023/05/04 04:39:10;;;;;;;14.55;4.97;;;6.70;99.90;;;;;;4969602;28;20057;-76
2023/05/04 04:41:37;;;;;;;8.23;5.07;;;6.70;99.90;;;;;;4970055;28;20108;-77
2023/05/04 04:44:03;;;;;;;8.73;4.57;;;6.70;99.90;;;;;;4970422;28;20050;-76
2023/05/04 04:46:29;;;;;;;11.00;4.60;;;6.70;99.90;;;;;;4985415;28;20361;-76
2023/05/04 04:48:55;;;;;;;11.13;4.47;;;6.70;99.90;;;;;;4986854;28;20178;-76
2023/05/04 04:51:21;;;;;;;9.82;4.43;;;6.70;99.90;;;;;;4951979;28;20046;-76
2023/05/04 04:53:47;;;;;;;10.02;5.15;;;6.70;99.90;;;;;;4971110;28;20045;-75
2023/05/04 04:56:13;;;;;;;13.55;4.90;;;6.70;99.90;;;;;;4968978;28;20559;-76
2023/05/04 04:58:39;;;;;;;7.72;4.35;;;6.70;99.90;;;;;;4970224;28;20042;-76
2023/05/04 05:01:06;;;;;;;9.70;5.53;;;6.70;99.90;;;;;;4963343;28;20081;-76
2023/05/04 05:03:32;;;;;;;13.60;5.07;;;6.80;99.90;;;;;;4968842;28;20300;-76
2023/05/04 05:06:00;;;;;;;13.07;4.90;;;6.80;99.90;;;;;;4970616;28;20057;-76
2023/05/04 05:08:26;;;;;;;11.93;5.68;;;6.80;99.90;;;;;;4967682;28;20327;-76
2023/05/04 05:10:52;;;;;;;10.60;4.53;;;6.90;99.90;;;;;;4970410;28;20039;-76
2023/05/04 05:13:18;;;;;;;11.82;4.43;;;6.90;99.90;;;;;;4968537;28;20061;-76
2023/05/04 05:15:43;;;;;;;10.35;4.57;;;7.00;99.90;;;;;;4938660;28;20862;-76
2023/05/04 05:18:09;;;;;;;9.45;4.53;;;7.10;99.90;;;;;;4952425;28;20349;-75
2023/05/04 05:20:35;;;;;;;12.70;4.60;;;7.10;99.90;;;;;;4968860;28;20181;-76
2023/05/04 05:23:01;;;;;;;12.32;4.30;;;7.20;99.90;;;;;;4970352;28;20042;-76
2023/05/04 05:25:26;;;;;;;9.85;4.03;;;7.30;99.90;;;;;;4968361;28;20050;-76
2023/05/04 05:27:52;;;;;;;11.00;4.32;;;7.30;99.90;;;;;;4970214;28;20169;-75
2023/05/04 05:30:19;;;;;;;12.68;4.65;;;7.40;99.90;;;;;;4967309;28;20050;-76
2023/05/04 05:32:45;;;;;;;8.00;3.92;;;7.40;99.90;;;;;;4970607;28;20050;-76
2023/05/04 05:35:11;;;;;;;15.13;4.75;;;7.50;99.90;;;;;;4968741;28;20054;-76
2023/05/04 05:37:37;;;;;;;10.13;4.28;;;7.50;99.90;;;;;;4969836;28;20098;-76
2023/05/04 05:40:06;;;;;;;17.17;4.95;;;7.50;99.90;;;;;;4970507;28;20401;-76
2023/05/04 05:42:32;;;;;;;13.90;4.40;;;7.60;99.90;;;;;;4969079;28;20050;-76
2023/05/04 05:45:00;;;;;;;14.88;4.28;;;7.60;99.90;;;;;;4972257;28;20062;-76
2023/05/04 05:47:26;;;;;;;15.18;4.25;;;7.70;99.90;;;;;;4955686;28;20141;-76
2023/05/04 05:49:53;;;;;;;11.95;3.83;;;7.70;99.90;;;;;;4974282;28;20193;-75
2023/05/04 05:52:19;;;;;;;7.90;4.25;;;7.80;99.90;;;;;;4971626;28;20054;-76
2023/05/04 05:54:47;;;;;;;11.15;3.60;;;7.80;99.90;;;;;;4974529;28;20053;-75
2023/05/04 05:57:13;;;;;;;7.63;4.03;;;7.80;99.90;;;;;;4957477;28;20133;-75
2023/05/04 05:59:40;;;;;;;11.00;3.90;;;7.90;99.90;;;;;;4956619;28;20046;-76
2023/05/04 06:02:06;;;;;;;6.63;3.78;;;8.00;99.90;;;;;;4955610;28;20047;-75
2023/05/04 06:04:32;;;;;;;11.95;4.05;;;8.00;99.90;;;;;;4975294;28;20049;-75
2023/05/04 06:06:58;;;;;;;9.77;4.05;;;8.10;99.90;;;;;;4978336;28;20092;-76
2023/05/04 06:09:24;;;;;;;11.65;4.10;;;8.20;99.90;;;;;;4973383;28;20151;-76
2023/05/04 06:11:50;;;;;;;10.10;4.00;;;8.20;99.90;;;;;;4985034;28;20054;-76
2023/05/04 06:14:15;;;;;;;9.75;4.35;;;8.30;99.90;;;;;;4990574;28;20376;-76
2023/05/04 06:16:41;;;;;;;12.30;4.20;;;8.40;99.90;;;;;;4985268;28;20476;-76
2023/05/04 06:19:07;;;;;;;7.18;3.78;;;8.40;99.90;;;;;;4970681;28;20208;-75
2023/05/04 06:21:32;;;;;;;9.45;3.95;;;8.40;99.90;;;;;;4990435;28;20061;-75
2023/05/04 06:23:58;;;;;;;9.85;3.67;;;8.50;99.90;;;;;;4988936;28;20061;-76
2023/05/04 06:26:24;;;;;;;10.38;4.85;;;8.50;99.90;;;;;;4985060;28;20060;-75
2023/05/04 06:28:50;;;;;;;12.70;3.60;;;8.70;99.90;;;;;;4980938;28;20050;-75
2023/05/04 06:31:17;;;;;;;10.20;3.70;;;8.70;99.90;;;;;;4974107;28;20041;-76
2023/05/04 06:33:43;;;;;;;12.95;3.60;;;8.80;99.90;;;;;;4964062;28;20042;-77
2023/05/04 06:36:10;;;;;;;12.57;4.10;;;8.80;99.90;;;;;;4989549;28;20101;-77
2023/05/04 06:38:36;;;;;;;8.10;4.40;;;8.90;99.80;;;;;;4982361;28;20439;-76
2023/05/04 06:41:02;;;;;;;12.43;3.75;;;9.00;99.90;;;;;;4978218;28;20058;-77
2023/05/04 06:43:28;;;;;;;8.68;3.28;;;9.10;99.90;;;;;;4965483;28;20385;-76
2023/05/04 06:45:54;;;;;;;11.52;4.53;;;9.10;99.90;;;;;;4972572;28;20054;-76
2023/05/04 06:48:19;;;;;;;10.88;4.22;;;9.20;99.90;;;;;;4970487;28;20042;-76
2023/05/04 06:50:46;;;;;;;8.43;3.55;;;9.40;99.90;;;;;;4971544;28;20157;-77
2023/05/04 06:53:12;;;;;;;7.55;3.65;;;9.40;99.90;;;;;;4969984;28;20084;-76
2023/05/04 06:55:37;;;;;;;15.10;3.67;;;9.50;99.20;;;;;;4960445;28;20046;-76
2023/05/04 06:58:04;;;;;;;13.73;3.92;;;9.50;97.30;;;;;;4975511;28;20440;-77
2023/05/04 07:00:31;;;;;;;8.30;3.92;;;9.50;96.80;;;;;;4970069;28;20038;-77
2023/05/04 07:02:56;;;;;;;10.52;3.58;;;9.50;98.60;;;;;;4945198;28;20054;-76
2023/05/04 07:05:24;;;;;;;10.50;3.38;;;9.50;97.70;;;;;;4970614;28;20120;-76
2023/05/04 07:07:59;;;;;;;8.27;3.50;;;9.60;99.10;;;;;;5001255;28;20133;-76
2023/05/04 07:10:25;;;;;;;9.80;4.05;;;9.70;98.70;;;;;;4974842;28;20130;-76
2023/05/04 07:12:51;;;;;;;8.00;4.40;;;9.80;98.20;;;;;;4955175;28;20042;-76
2023/05/04 07:15:16;;;;;;;7.95;4.00;;;9.90;99.20;;;;;;4956649;28;20050;-76
2023/05/04 07:17:43;;;;;;;12.07;4.28;;;10.00;98.40;;;;;;4961734;28;20575;-76
2023/05/04 07:20:10;;;;;;;9.80;4.05;;;10.10;97.30;;;;;;4959138;28;20042;-76
2023/05/04 07:22:35;;;;;;;6.25;3.00;;;10.10;99.20;;;;;;4959622;28;20050;-74
2023/05/04 07:25:02;;;;;;;10.10;4.18;;;10.30;98.90;;;;;;4978929;28;20050;-75
2023/05/04 07:27:30;;;;;;;13.27;4.72;;;10.40;96.30;;;;;;4992198;28;20055;-75
2023/05/04 07:29:56;;;;;;;9.75;4.95;;;10.50;97.70;;;;;;4964123;28;20054;-75
2023/05/04 07:32:22;;;;;;;11.23;4.35;;;10.60;95.70;;;;;;4951403;28;20070;-75
2023/05/04 07:34:48;;;;;;;7.78;4.38;;;10.60;96.30;;;;;;4990798;28;20053;-76
2023/05/04 07:37:16;;;;;;;20.85;5.18;;;10.70;98.20;;;;;;4973733;28;20638;-75
2023/05/04 07:39:43;;;;;;;9.88;4.35;;;10.60;96.20;;;;;;4959102;28;20042;-76
2023/05/04 07:42:10;;;;;;;10.10;4.70;;;10.60;97.40;;;;;;4957593;28;20053;-76
2023/05/04 07:44:36;;;;;;;13.00;4.28;;;10.80;99.90;;;;;;4972016;28;20485;-76
2023/05/04 07:47:02;;;;;;;7.63;3.30;;;11.00;99.90;;;;;;4942122;28;20058;-76
2023/05/04 07:49:27;;;;;;;7.70;3.97;;;11.10;99.20;;;;;;4945511;28;20058;-76
2023/05/04 07:51:53;;;;;;;4.80;3.40;;;11.20;96.20;;;;;;4969633;28;20042;-76
2023/05/04 07:54:19;;;;;;;9.30;4.13;;;11.40;92.70;;;;;;4953849;28;20160;-75
2023/05/04 07:56:45;;;;;;;6.57;3.50;;;11.60;94.10;;;;;;4964278;28;20520;-75
2023/05/04 07:59:11;;;;;;;12.98;3.97;;;11.60;88.90;;;;;;4987273;28;20042;-76
2023/05/04 08:01:37;;;;;;;6.95;3.35;;;11.70;81.90;;;;;;4963968;28;20061;-75
2023/05/04 08:04:02;;;;;;;9.07;3.40;;;11.90;91.40;;;;;;4971716;28;20496;-76
2023/05/04 08:06:28;;;;;;;10.95;3.95;;;12.10;92.30;;;;;;4969070;28;20038;-76
2023/05/04 08:08:54;;;;;;;6.72;3.80;;;12.20;83.00;;;;;;4970703;28;20050;-76
2023/05/04 08:11:19;;;;;;;6.53;3.85;;;12.10;78.60;;;;;;4971464;28;20128;-74
2023/05/04 08:13:46;;;;;;;7.22;4.00;;;12.00;83.90;;;;;;4969230;28;20128;-75
2023/05/04 08:16:12;;;;;;;6.13;3.70;;;12.00;90.10;;;;;;4956480;28;20165;-75
2023/05/04 08:18:38;;;;;;;9.63;3.85;;;12.10;90.60;;;;;;4959826;28;20130;-75
2023/05/04 08:21:04;;;;;;;7.70;3.15;;;12.20;81.80;;;;;;4968757;28;20046;-75
2023/05/04 08:23:30;;;;;;;7.72;3.53;;;12.50;87.40;;;;;;4969035;28;20133;-75
2023/05/04 08:25:56;;;;;;;6.60;3.50;;;12.70;87.60;;;;;;4965932;28;20592;-75
2023/05/04 08:28:22;;;;;;;8.20;3.67;;;12.90;73.40;;;;;;4974707;28;20133;-75
2023/05/04 08:30:48;;;;;;;7.63;3.72;;;13.00;75.40;;;;;;4974892;28;20180;-75
2023/05/04 08:33:14;;;;;;;6.72;3.72;;;13.00;67.10;;;;;;4980729;28;20400;-75
2023/05/04 08:35:39;;;;;;;12.88;4.72;;;13.00;78.70;;;;;;4974069;28;20077;-74
2023/05/04 08:38:06;;;;;;;15.50;4.32;;;13.00;73.60;;;;;;4973595;28;20046;-75
2023/05/04 08:40:32;;;;;;;9.05;3.53;;;12.90;71.80;;;;;;4974252;28;20126;-75
2023/05/04 08:42:58;;;;;;;18.45;3.78;;;12.90;79.80;;;;;;4971825;28;20144;-75
2023/05/04 08:45:24;;;;;;;10.05;3.60;;;13.00;71.10;;;;;;4978271;28;20138;-75
2023/05/04 08:47:50;;;;;;;12.75;3.83;;;13.00;69.90;;;;;;4973501;28;20946;-75
2023/05/04 08:50:16;;;;;;;12.77;3.97;;;13.20;63.30;;;;;;4979159;28;20120;-75
2023/05/04 08:52:46;;;;;;;7.88;3.47;;;13.30;63.40;;;;;;4969895;28;20371;-75
2023/05/04 08:55:12;;;;;;;;;;;13.40;69.00;;;;;;4954820;28;20100;-75
2023/05/04 08:57:41;;;;;;;7.43;3.45;;;13.50;71.10;;;;;;4976421;28;19968;-75
2023/05/04 09:00:09;;;;;;;11.90;3.83;;;13.60;66.30;;;;;;4982490;28;20089;-74
2023/05/04 09:02:37;;;;;;;12.02;3.85;;;13.60;64.20;;;;;;4971831;28;20281;-75
2023/05/04 09:05:06;;;;;;;11.35;3.63;;;13.60;68.70;;;;;;4970667;28;20199;-75
2023/05/04 09:07:32;;;;;;;7.80;3.72;;;13.70;63.20;;;;;;4970643;28;20046;-74
2023/05/04 09:09:58;;;;;;;10.93;3.78;;;13.80;56.00;;;;;;4969285;28;20092;-74
2023/05/04 09:12:25;;;;;;;7.28;3.10;;;13.90;67.00;;;;;;4970520;28;20050;-74
2023/05/04 09:14:51;;;;;;;12.27;3.53;;;13.90;41.50;;;;;;4968615;28;20046;-74
2023/05/04 09:17:24;;;;;;;11.55;3.38;;;14.10;42.60;;;;;;4970543;28;20373;-74
2023/05/04 09:19:58;;;;;;;8.52;3.75;;;14.10;46.30;;;;;;4930318;28;20054;-74
2023/05/04 09:22:23;;;;;;;8.00;3.05;;;14.20;45.30;;;;;;4974920;28;20400;-74
2023/05/04 09:24:49;;;;;;;9.77;3.17;;;14.30;30.40;;;;;;4959704;28;20050;-76
2023/05/04 09:27:18;;;;;;;7.30;3.50;;;14.40;45.10;;;;;;4991637;28;20050;-76
2023/05/04 09:29:52;;;;;;;9.25;3.55;;;14.60;50.60;;;;;;4972242;28;20065;-74
2023/05/04 09:32:17;;;;;;;8.70;4.00;;;14.60;29.00;;;;;;4969711;28;20125;-74
2023/05/04 09:34:51;;;;;;;10.88;3.67;;;14.60;28.60;;;;;;4961176;28;20183;-74
2023/05/04 09:37:19;;;;;;;8.68;3.15;;;14.70;30.40;;;;;;4966570;28;20779;-74
2023/05/04 09:39:52;;;;;;;5.30;3.03;;;14.80;35.20;;;;;;4975866;28;20050;-75
2023/05/04 09:42:19;;;;;;;8.13;3.33;;;15.00;39.80;;;;;;4958918;28;20275;-74
2023/05/04 09:44:45;;;;;;;6.45;2.67;;;15.10;26.20;;;;;;4964113;28;20053;-74
2023/05/04 09:47:11;;;;;;;8.63;2.55;;;15.20;18.90;;;;;;4979178;28;20062;-74
2023/05/04 09:49:37;;;;;;;6.57;2.80;;;15.10;13.20;;;;;;4966618;28;20051;-74
2023/05/04 09:52:05;;;;;;;9.57;3.05;;;15.10;26.80;;;;;;4976834;28;20185;-75
2023/05/04 09:54:40;;;;;;;7.70;3.30;;;15.20;16.30;;;;;;4987803;28;20042;-74
2023/05/04 09:57:14;;;;;;;5.22;2.47;;;15.30;24.90;;;;;;4979103;28;20053;-74
2023/05/04 09:59:41;;;;;;;6.63;2.47;;;15.50;19.00;;;;;;4986188;28;20069;-74
2023/05/04 10:02:08;;;;;;;4.80;2.17;;;15.60;22.70;;;;;;4959481;28;20046;-75
2023/05/04 10:04:35;;;;;;;7.07;2.83;;;15.80;17.90;;;;;;4987592;28;20042;-74
2023/05/04 10:07:03;;;;;;;6.80;2.60;;;15.90;20.70;;;;;;4966843;28;20046;-75
2023/05/04 10:09:30;;;;;;;7.78;2.58;;;16.10;10.10;;;;;;4981946;28;20051;-75
2023/05/04 10:11:59;;;;;;;12.43;3.28;;;16.20;17.80;;;;;;4952502;28;20366;-75
2023/05/04 10:14:25;;;;;;;8.77;3.10;;;16.40;16.00;;;;;;4969455;28;20046;-75
2023/05/04 10:17:06;;;;;;;9.15;3.47;;;16.50;26.50;;;;;;4970014;28;20532;-75
2023/05/04 10:19:38;;;;;;;8.70;3.15;;;16.70;17.60;;;;;;4952360;28;20039;-75
2023/05/04 10:22:22;;;;;;;4.43;3.03;;;16.80;11.50;;;;;;4953162;28;20047;-75
2023/05/04 10:25:22;;;;;;;5.47;2.70;;;16.80;11.20;;;;;;4986867;28;20105;-76
2023/05/04 10:27:48;;;;;;;7.22;3.13;;;16.50;6.20;;;;;;4985246;28;20057;-76
2023/05/04 10:30:17;;;;;;;6.05;2.53;;;16.50;10.80;;;;;;4975337;28;20393;-76
2023/05/04 10:32:43;;;;;;;10.25;2.83;;;16.60;12.90;;;;;;4979195;28;20057;-75
2023/05/04 10:35:10;;;;;;;9.00;2.88;;;16.60;9.40;;;;;;4982565;28;20054;-75
2023/05/04 10:37:37;;;;;;;10.00;2.95;;;16.60;14.50;;;;;;4986132;28;20069;-75
2023/05/04 10:40:07;;;;;;;4.85;2.45;;;16.70;3.70;;;;;;4985195;28;20054;-75
2023/05/04 10:42:43;;;;;;;7.28;2.50;;;16.80;8.50;;;;;;4981843;28;20085;-75
2023/05/04 10:45:09;;;;;;;6.53;2.35;;;16.90;12.00;;;;;;4965161;28;20046;-75
2023/05/04 10:47:39;;;;;;;10.48;2.45;;;17.00;14.40;;;;;;4959259;28;20051;-75
2023/05/04 10:50:05;;;;;;;;;;;17.20;10.70;;;;;;4974525;28;20053;-75
2023/05/04 10:52:32;;;;;;;6.47;2.38;;;17.10;1.30;;;;;;4965996;28;20020;-75
2023/05/04 10:55:04;;;;;;;5.43;2.65;;;17.10;5.10;;;;;;4983991;28;20137;-75
2023/05/04 10:57:30;;;;;;;5.95;2.40;;;17.20;6.40;;;;;;4966735;28;20090;-75
2023/05/04 10:59:57;;;;;;;4.03;2.00;;;17.20;8.10;;;;;;4969272;28;20082;-75
2023/05/04 11:02:25;;;;;;;6.60;2.58;;;17.20;21.40;;;;;;4952999;28;20057;-75
2023/05/04 11:05:04;;;;;;;9.65;3.42;;;17.40;4.40;;;;;;4954685;28;20047;-75
2023/05/04 11:07:37;;;;;;;7.38;2.38;;;17.40;5.70;;;;;;4965971;28;20122;-75
2023/05/04 11:10:04;;;;;;;8.02;2.42;;;17.20;7.30;;;;;;4968681;28;20051;-75
2023/05/04 11:12:31;;;;;;;5.15;2.63;;;17.20;10.80;;;;;;4951868;28;20140;-76
2023/05/04 11:15:10;;;;;;;7.57;2.35;;;17.20;11.50;;;;;;4969125;28;20086;-74
2023/05/04 11:17:49;;;;;;;6.15;2.50;;;17.30;11.80;;;;;;4969221;28;20053;-75
2023/05/04 11:20:23;;;;;;;8.75;2.20;;;17.30;9.90;;;;;;4977018;28;20042;-74
2023/05/04 11:22:49;;;;;;;5.93;2.40;;;17.50;9.00;;;;;;4970442;28;20050;-74
2023/05/04 11:25:16;;;;;;;10.82;2.45;;;17.50;11.50;;;;;;4965698;28;20050;-74
2023/05/04 11:27:43;;;;;;;4.97;2.33;;;17.20;1.00;;;;;;4979942;28;20057;-76
2023/05/04 11:30:09;;;;;;;6.45;1.85;;;17.10;1.00;;;;;;4984209;28;20144;-75
2023/05/04 11:32:41;;;;;;;7.38;2.67;;;16.80;3.10;;;;;;4971187;28;20054;-74
2023/05/04 11:35:13;;;;;;;5.43;1.92;;;16.80;11.90;;;;;;4974226;28;20062;-74
2023/05/04 11:37:40;;;;;;;7.40;1.95;;;16.90;1.00;;;;;;4976395;28;20054;-75
2023/05/04 11:40:21;;;;;;;2.78;1.70;;;16.90;1.00;;;;;;4962877;28;20065;-74
2023/05/04 11:42:48;;;;;;;5.05;1.73;;;16.90;1.00;;;;;;4977729;28;20061;-74
2023/05/04 11:45:17;;;;;;;10.45;2.10;;;17.00;1.00;;;;;;4973638;28;20046;-74
2023/05/04 11:47:44;;;;;;;6.37;1.63;;;17.00;1.00;;;;;;4980195;28;20054;-75
2023/05/04 11:50:12;;;;;;;5.25;1.95;;;17.00;1.00;;;;;;4952275;28;20046;-74
2023/05/04 11:52:40;;;;;;;7.23;2.03;;;17.10;1.00;;;;;;4983398;28;20049;-74
2023/05/04 11:55:27;;;;;;;4.75;2.30;;;17.40;1.00;;;;;;4963159;28;20045;-74
2023/05/04 11:58:02;;;;;;;6.07;2.08;;;17.50;1.00;;;;;;4981037;28;20085;-74
2023/05/04 12:00:42;;;;;;;5.93;2.03;;;17.50;1.00;;;;;;4977018;28;20101;-73
2023/05/04 12:03:16;;;;;;;2.72;1.73;;;17.30;1.00;;;;;;4975975;28;20531;-73
2023/05/04 12:05:46;;;;;;;6.97;2.58;;;17.20;1.00;;;;;;4966063;28;20493;-73
2023/05/04 12:08:30;;;;;;;7.85;2.03;;;17.30;1.00;;;;;;4978309;28;20086;-73
2023/05/04 12:11:12;;;;;;;9.13;2.85;;;17.30;1.00;;;;;;4967366;28;20086;-72
2023/05/04 12:13:40;;;;;;;8.05;2.50;;;17.50;1.00;;;;;;4967514;28;20070;-72
2023/05/04 12:16:17;;;;;;;4.05;2.20;;;17.70;1.00;;;;;;4967718;28;20486;-72
2023/05/04 12:18:44;;;;;;;5.82;2.40;;;17.60;1.00;;;;;;4968434;28;20519;-72
2023/05/04 12:21:18;;;;;;;5.53;2.30;;;17.40;1.00;;;;;;4950281;28;20047;-71
2023/05/04 12:23:45;;;;;;;6.35;2.13;;;17.50;1.00;;;;;;4968329;28;20142;-72
2023/05/04 12:26:12;;;;;;;7.65;2.33;;;17.60;1.00;;;;;;4968131;28;20090;-71
2023/05/04 12:28:40;;;;;;;4.50;2.25;;;17.80;1.00;;;;;;4968678;28;20366;-71
2023/05/04 12:31:06;;;;;;;10.50;2.10;;;17.90;1.00;;;;;;4951254;28;20042;-71
2023/05/04 12:33:33;;;;;;;8.18;2.47;;;17.90;1.00;;;;;;4967198;28;20038;-73
2023/05/04 12:36:00;;;;;;;7.13;2.55;;;17.90;1.00;;;;;;4952027;28;20121;-70
2023/05/04 12:38:27;;;;;;;4.63;2.38;;;17.90;1.00;;;;;;4967225;28;20038;-71
2023/05/04 12:40:54;;;;;;;6.78;1.88;;;17.90;1.00;;;;;;4958678;28;20405;-71
2023/05/04 12:43:21;;;;;;;4.00;1.77;;;17.90;1.00;;;;;;4951600;28;20477;-71
2023/05/04 12:45:49;;;;;;;6.05;2.33;;;17.80;1.00;;;;;;4968739;28;20066;-71
2023/05/04 12:48:15;;;;;;;7.15;2.00;;;17.80;1.00;;;;;;4986082;28;20116;-71
2023/05/04 12:50:44;;;;;;;5.32;2.60;;;17.80;1.00;;;;;;4965832;28;20062;-71